HLE05 EGPF-EGPA

Flight info

Callsign HLE05
Flight time N/A
Altitude 7000
Route INS DCT WIK
Aircraft H145/L-SDFGRY/C

Departure

Time 2026-05-01 15:14
Airport Glasgow Airport (EGPF)

Arrival

Time N/A
Airport Kirkwall Airport (EGPA)
Time Latitude Longitude Altitude Speed Heading
2026-05-01 15:08 55.87277 -4.42536 28 ft 0 kts 199°
2026-05-01 15:13 55.87916 -4.41931 196 ft 109 kts
2026-05-01 15:14 55.89245 -4.40114 397 ft 124 kts 14°
2026-05-01 15:14 55.90082 -4.39967 597 ft 125 kts 333°
2026-05-01 15:14 55.91668 -4.41232 785 ft 132 kts 336°
2026-05-01 15:15 55.93279 -4.40386 1027 ft 96 kts
2026-05-01 15:15 55.94208 -4.39862 2018 ft 60 kts 12°
2026-05-01 15:16 55.95207 -4.39499 2678 ft 108 kts 10°
2026-05-01 15:16 55.96987 -4.39028 2820 ft 140 kts
2026-05-01 15:17 55.98893 -4.38616 3183 ft 143 kts
2026-05-01 15:18 56.01667 -4.38028 3857 ft 131 kts
2026-05-01 15:18 56.02579 -4.37834 4112 ft 132 kts 359°
2026-05-01 15:19 56.05456 -4.37263 4119 ft 140 kts
2026-05-01 15:19 56.07423 -4.36841 4119 ft 144 kts
2026-05-01 15:19 56.08417 -4.36630 4124 ft 142 kts
2026-05-01 15:20 56.10391 -4.36203 4121 ft 142 kts
2026-05-01 15:20 56.11376 -4.35993 4122 ft 142 kts
2026-05-01 15:20 56.12345 -4.35661 4102 ft 142 kts 13°
2026-05-01 15:21 56.13185 -4.34981 4100 ft 128 kts 16°
2026-05-01 15:21 56.14132 -4.34704 4194 ft 128 kts 358°
2026-05-01 15:21 56.15037 -4.34542 4151 ft 128 kts